Time;durP1;ratioP1;P1;durP2;ratioP2;P2;SDS_P1;SDS_P2;PMS_P1;PMS_P2;Temp;Humidity;BMP_temperature;BMP_pressure;BME280_temperature;BME280_humidity;BME280_pressure;Samples;Min_cycle;Max_cycle;Signal;HPM_P1;HPM_P2
2024/04/21 00:00:24;;;;;;;11.20;4.70;;;;;;;3.39;68.20;101135.63;110951;1212;137778;-63
2024/04/21 00:02:50;;;;;;;8.30;4.10;;;;;;;3.37;68.07;101138.30;111059;1212;98903;-63
2024/04/21 00:05:15;;;;;;;8.80;3.50;;;;;;;3.34;68.12;101139.38;110996;1212;137932;-63
2024/04/21 00:07:40;;;;;;;7.40;3.70;;;;;;;3.32;67.99;101144.33;111117;1206;112995;-64
2024/04/21 00:10:06;;;;;;;11.10;4.40;;;;;;;3.28;67.97;101143.48;111175;1212;98916;-63
2024/04/21 00:12:31;;;;;;;8.90;3.60;;;;;;;3.23;67.91;101141.90;110864;1207;137706;-64
2024/04/21 00:14:56;;;;;;;6.10;2.90;;;;;;;3.18;67.72;101145.46;111096;1219;99244;-63
2024/04/21 00:17:21;;;;;;;8.50;4.00;;;;;;;3.12;67.43;101147.27;111058;1206;137706;-63
2024/04/21 00:19:46;;;;;;;7.90;4.00;;;;;;;3.08;67.71;101146.58;111105;1211;98998;-63
2024/04/21 00:22:11;;;;;;;7.00;3.30;;;;;;;3.06;67.73;101148.71;111199;1211;99101;-63
2024/04/21 00:24:37;;;;;;;10.70;4.30;;;;;;;3.03;67.51;101152.95;110892;1212;139155;-63
2024/04/21 00:27:02;;;;;;;8.10;3.00;;;;;;;2.99;67.61;101155.45;111155;1206;99141;-64
2024/04/21 00:29:28;;;;;;;11.60;3.90;;;;;;;2.96;67.49;101154.39;111009;1206;137863;-64
2024/04/21 00:31:53;;;;;;;13.00;4.20;;;;;;;2.94;67.62;101151.39;111478;1211;99051;-64
2024/04/21 00:34:19;;;;;;;9.70;4.10;;;;;;;2.92;67.40;101155.30;111143;1206;98957;-63
2024/04/21 00:36:44;;;;;;;8.10;4.30;;;;;;;2.89;67.44;101154.59;110946;1206;137715;-63
2024/04/21 00:39:09;;;;;;;12.10;4.00;;;;;;;2.86;67.45;101157.79;111083;1206;99151;-63
2024/04/21 00:41:34;;;;;;;10.00;4.10;;;;;;;2.82;67.43;101156.74;110972;1206;137953;-63
2024/04/21 00:44:00;;;;;;;11.20;3.90;;;;;;;2.78;67.20;101157.99;111113;1212;99013;-63
2024/04/21 00:46:26;;;;;;;9.10;4.30;;;;;;;2.75;67.19;101163.83;111066;1206;99143;-64
2024/04/21 00:48:53;;;;;;;14.20;4.60;;;;;;;2.70;67.04;101156.79;111023;1212;138099;-63
2024/04/21 00:51:20;;;;;;;9.60;3.60;;;;;;;2.66;67.16;101160.86;111009;1212;98959;-63
2024/04/21 00:53:47;;;;;;;10.00;4.30;;;;;;;2.60;67.11;101163.53;111056;1212;137600;-64
2024/04/21 00:56:15;;;;;;;9.10;4.20;;;;;;;2.57;67.13;101167.27;111172;1206;99056;-63
2024/04/21 00:58:42;;;;;;;9.10;4.10;;;;;;;2.55;67.16;101169.91;110954;1211;137719;-64
2024/04/21 01:01:07;;;;;;;7.90;4.00;;;;;;;2.52;66.93;101171.34;110979;1208;98994;-64
2024/04/21 01:03:34;;;;;;;6.40;3.30;;;;;;;2.48;67.10;101171.34;111115;1210;99004;-64
2024/04/21 01:05:59;;;;;;;10.80;4.20;;;;;;;2.44;67.02;101178.40;110955;1212;137880;-64
2024/04/21 01:08:24;;;;;;;7.20;3.70;;;;;;;2.40;66.99;101178.06;110977;1206;98953;-63
2024/04/21 01:10:50;;;;;;;8.00;3.60;;;;;;;2.37;67.04;101180.70;110902;1208;138467;-64
2024/04/21 01:13:15;;;;;;;8.60;4.00;;;;;;;2.35;67.02;101181.94;111083;1210;98953;-63
2024/04/21 01:15:40;;;;;;;8.30;3.60;;;;;;;2.34;66.96;101184.23;111027;1212;99005;-64
2024/04/21 01:18:07;;;;;;;13.80;4.50;;;;;;;2.32;67.03;101189.35;111043;1209;138351;-63
2024/04/21 01:20:35;;;;;;;11.90;4.10;;;;;;;2.28;66.92;101191.64;111019;1212;98952;-63
2024/04/21 01:23:01;;;;;;;10.80;4.20;;;;;;;2.24;66.98;101190.77;110928;1212;139354;-63
2024/04/21 01:25:26;;;;;;;10.60;3.80;;;;;;;2.23;66.79;101194.48;111057;1208;99100;-63
2024/04/21 01:27:52;;;;;;;10.30;3.60;;;;;;;2.22;66.91;101193.07;111172;1212;99601;-63
2024/04/21 01:30:18;;;;;;;7.90;3.90;;;;;;;2.18;66.80;101195.71;110980;1210;139043;-64
2024/04/21 01:32:43;;;;;;;11.50;5.10;;;;;;;2.16;67.01;101195.89;111139;1212;99005;-64
2024/04/21 01:35:08;;;;;;;10.70;3.90;;;;;;;2.14;66.92;101196.94;110873;1210;138653;-63
2024/04/21 01:37:35;;;;;;;8.00;3.80;;;;;;;2.13;67.06;101188.13;110956;1212;99074;-63
2024/04/21 01:40:02;;;;;;;11.40;3.90;;;;;;;2.12;67.03;101192.89;111149;1212;98940;-63
2024/04/21 01:42:27;;;;;;;9.00;3.70;;;;;;;2.09;66.98;101196.24;110694;1210;138107;-64
2024/04/21 01:44:52;;;;;;;11.60;4.00;;;;;;;2.08;66.95;101198.00;110995;1209;99044;-63
2024/04/21 01:47:17;;;;;;;10.00;3.90;;;;;;;2.06;66.78;101201.53;111052;1209;138354;-63
2024/04/21 01:49:44;;;;;;;15.10;4.40;;;;;;;2.03;66.88;101203.29;111071;1206;101249;-63
2024/04/21 01:52:09;;;;;;;9.80;3.70;;;;;;;1.99;66.99;101209.28;111141;1211;99062;-63
2024/04/21 01:54:35;;;;;;;8.20;4.30;;;;;;;1.95;66.90;101210.16;110997;1212;138656;-64
2024/04/21 01:57:00;;;;;;;10.90;4.20;;;;;;;1.92;66.85;101213.16;111102;1206;98952;-63
2024/04/21 01:59:25;;;;;;;9.20;3.90;;;;;;;1.89;66.93;101215.63;111022;1212;137782;-63
2024/04/21 02:01:50;;;;;;;11.40;4.30;;;;;;;1.87;66.84;101218.60;111085;1211;96652;-64
2024/04/21 02:04:15;;;;;;;9.90;3.80;;;;;;;1.84;66.86;101223.71;111157;1210;98939;-63
2024/04/21 02:06:41;;;;;;;9.10;4.50;;;;;;;1.80;66.83;101226.00;110905;1206;137870;-63
2024/04/21 02:09:06;;;;;;;8.40;4.20;;;;;;;1.78;66.95;101226.52;111010;1212;99035;-64
2024/04/21 02:11:31;;;;;;;11.90;4.20;;;;;;;1.75;66.97;101222.64;110970;1212;137616;-64
2024/04/21 02:13:56;;;;;;;7.20;3.70;;;;;;;1.72;66.89;101223.16;111000;1206;99038;-64
2024/04/21 02:16:22;;;;;;;10.40;4.70;;;;;;;1.66;66.95;101223.33;111047;1207;99017;-64
2024/04/21 02:18:47;;;;;;;14.90;4.10;;;;;;;1.65;67.03;101223.86;110964;1206;138495;-63
2024/04/21 02:21:12;;;;;;;11.30;4.50;;;;;;;1.62;66.88;101226.14;111124;1212;99043;-64
2024/04/21 02:23:37;;;;;;;10.90;3.80;;;;;;;1.59;67.00;101225.08;110929;1206;138586;-63
2024/04/21 02:26:02;;;;;;;10.20;4.50;;;;;;;1.57;66.97;101225.77;111099;1212;99045;-64
2024/04/21 02:28:28;;;;;;;10.20;3.70;;;;;;;1.55;66.98;101224.71;111048;1206;98921;-64
2024/04/21 02:30:54;;;;;;;11.40;4.50;;;;;;;1.53;66.99;101226.30;110928;1206;138957;-64
2024/04/21 02:33:24;;;;;;;10.80;4.80;;;;;;;1.52;67.06;101227.88;110957;1206;98948;-63
2024/04/21 02:35:53;;;;;;;9.10;4.30;;;;;;;1.51;67.15;101227.88;111096;1212;139081;-64
2024/04/21 02:38:18;;;;;;;12.10;4.60;;;;;;;1.49;67.01;101225.92;111198;1212;99060;-64
2024/04/21 02:40:43;;;;;;;8.10;4.00;;;;;;;1.46;67.14;101225.56;110948;1206;138463;-64
2024/04/21 02:43:08;;;;;;;10.80;4.20;;;;;;;1.42;67.07;101222.91;111137;1210;99049;-64
2024/04/21 02:45:34;;;;;;;12.20;4.70;;;;;;;1.38;67.11;101226.78;111028;1206;98923;-63
2024/04/21 02:48:00;;;;;;;12.40;4.90;;;;;;;1.35;67.07;101225.35;111016;1212;140230;-64
2024/04/21 02:50:25;;;;;;;10.80;4.10;;;;;;;1.32;67.10;101227.28;110882;1212;98945;-64
2024/04/21 02:52:50;;;;;;;12.40;4.30;;;;;;;1.30;67.24;101228.15;110935;1206;138836;-64
2024/04/21 02:55:16;;;;;;;10.50;5.00;;;;;;;1.29;67.25;101225.16;111040;1206;98997;-63
2024/04/21 02:57:41;;;;;;;10.60;4.30;;;;;;;1.26;67.27;101224.80;111071;1206;96595;-64
2024/04/21 03:00:08;;;;;;;10.20;4.70;;;;;;;1.26;67.39;101228.84;110969;1212;138511;-64
2024/04/21 03:02:33;;;;;;;8.50;4.40;;;;;;;1.26;67.33;101233.23;111044;1206;108272;-63
2024/04/21 03:04:59;;;;;;;10.70;4.30;;;;;;;1.23;67.28;101237.45;110964;1212;138811;-63
2024/04/21 03:07:24;;;;;;;9.70;4.30;;;;;;;1.21;67.37;101245.38;111099;1206;98967;-63
2024/04/21 03:09:50;;;;;;;11.30;4.10;;;;;;;1.18;67.38;101245.36;111124;1206;99151;-63
2024/04/21 03:12:15;;;;;;;8.40;4.40;;;;;;;1.16;67.45;101248.16;111023;1206;140175;-63
2024/04/21 03:14:40;;;;;;;11.50;3.80;;;;;;;1.16;67.52;101249.92;111071;1206;99004;-63
2024/04/21 03:17:06;;;;;;;9.70;4.10;;;;;;;1.15;67.46;101249.21;111056;1206;138713;-63
2024/04/21 03:19:32;;;;;;;13.20;4.50;;;;;;;1.12;67.39;101252.19;111083;1206;99021;-63
2024/04/21 03:21:57;;;;;;;12.00;4.60;;;;;;;1.08;67.54;101252.35;111136;1206;99042;-64
2024/04/21 03:24:22;;;;;;;9.10;4.00;;;;;;;1.06;67.58;101249.52;110963;1206;138521;-63
2024/04/21 03:26:48;;;;;;;8.30;5.00;;;;;;;1.05;67.54;101243.36;111057;1206;99838;-63
2024/04/21 03:29:13;;;;;;;9.80;3.90;;;;;;;1.03;67.56;101245.27;111001;1206;138633;-63
2024/04/21 03:31:38;;;;;;;8.00;4.00;;;;;;;1.02;67.59;101245.63;111161;1206;98984;-64
2024/04/21 03:34:04;;;;;;;9.80;3.70;;;;;;;1.02;67.63;101243.70;111065;1212;99045;-63
2024/04/21 03:36:29;;;;;;;7.90;4.20;;;;;;;1.03;67.69;101244.75;110995;1212;139120;-63
2024/04/21 03:38:54;;;;;;;7.20;3.40;;;;;;;1.03;67.67;101246.52;111074;1212;98939;-63
2024/04/21 03:41:20;;;;;;;8.70;4.30;;;;;;;1.01;67.70;101246.85;110898;1212;140197;-63
2024/04/21 03:43:47;;;;;;;10.10;4.20;;;;;;;0.99;67.64;101249.31;111113;1206;98941;-63
2024/04/21 03:46:12;;;;;;;7.70;3.60;;;;;;;0.96;67.77;101251.92;110978;1206;108046;-63
2024/04/21 03:48:38;;;;;;;7.60;4.00;;;;;;;0.94;67.75;101248.93;110892;1212;139431;-63
2024/04/21 03:51:05;;;;;;;11.40;4.40;;;;;;;0.92;67.78;101248.73;111256;1206;98991;-64
2024/04/21 03:53:30;;;;;;;9.00;3.50;;;;;;;0.91;67.73;101254.19;110938;1206;138870;-63
2024/04/21 03:55:55;;;;;;;9.60;3.90;;;;;;;0.90;67.80;101255.06;111048;1206;99173;-64
2024/04/21 03:58:20;;;;;;;7.00;3.40;;;;;;;0.90;67.85;101260.52;111073;1212;99073;-64
2024/04/21 04:00:46;;;;;;;9.50;4.10;;;;;;;0.92;67.93;101261.06;110789;1206;138250;-63
2024/04/21 04:03:12;;;;;;;9.60;3.90;;;;;;;0.94;67.87;101259.48;111176;1212;99024;-63
2024/04/21 04:05:37;;;;;;;10.20;4.30;;;;;;;0.92;67.87;101257.71;110954;1206;138555;-63
2024/04/21 04:08:03;;;;;;;17.70;4.50;;;;;;;0.93;67.97;101262.30;111046;1210;99012;-64
2024/04/21 04:10:28;;;;;;;7.00;3.60;;;;;;;0.95;67.94;101262.31;111134;1209;99102;-63
2024/04/21 04:12:53;;;;;;;8.80;4.00;;;;;;;0.96;68.00;101263.37;111006;1206;138521;-63
2024/04/21 04:15:18;;;;;;;10.60;3.90;;;;;;;1.02;68.20;101262.16;111161;1206;98977;-63
2024/04/21 04:17:43;;;;;;;6.60;3.30;;;;;;;1.06;68.10;101262.37;111015;1206;138503;-64
2024/04/21 04:20:12;;;;;;;9.30;3.60;;;;;;;1.11;68.07;101267.32;111100;1211;99039;-63
2024/04/21 04:22:38;;;;;;;10.50;4.40;;;;;;;1.14;68.24;101268.75;110985;1206;99035;-64
2024/04/21 04:25:04;;;;;;;6.20;3.20;;;;;;;1.18;68.28;101268.41;111208;1211;139507;-63
2024/04/21 04:27:29;;;;;;;7.40;4.00;;;;;;;1.22;68.19;101264.56;110946;1210;112574;-63
2024/04/21 04:29:54;;;;;;;10.90;3.20;;;;;;;1.21;68.01;101268.25;111040;1210;138606;-63
2024/04/21 04:32:19;;;;;;;8.90;3.20;;;;;;;1.20;68.22;101268.77;111127;1206;99051;-63
2024/04/21 04:34:45;;;;;;;12.20;3.70;;;;;;;1.22;68.29;101270.89;111006;1206;138874;-64
2024/04/21 04:37:10;;;;;;;9.50;3.70;;;;;;;1.26;68.35;101273.20;111239;1206;99189;-63
2024/04/21 04:39:35;;;;;;;8.60;4.00;;;;;;;1.31;68.37;101275.87;110929;1206;99057;-63
2024/04/21 04:42:00;;;;;;;8.80;4.40;;;;;;;1.35;68.44;101277.65;111047;1206;138923;-63
2024/04/21 04:44:26;;;;;;;11.50;3.60;;;;;;;1.38;68.35;101278.36;111056;1209;111934;-63
2024/04/21 04:46:51;;;;;;;7.70;3.70;;;;;;;1.41;68.34;101279.96;110986;1211;139239;-63
2024/04/21 04:49:16;;;;;;;9.00;3.70;;;;;;;1.43;68.46;101282.43;111104;1206;100401;-63
2024/04/21 04:51:41;;;;;;;9.10;4.00;;;;;;;1.46;68.39;101283.68;111144;1212;99013;-63
2024/04/21 04:54:07;;;;;;;8.90;3.70;;;;;;;1.50;68.48;101287.75;111119;1206;138459;-63
2024/04/21 04:56:32;;;;;;;11.00;3.70;;;;;;;1.53;68.60;101278.59;111027;1211;99006;-63
2024/04/21 04:58:57;;;;;;;13.10;3.80;;;;;;;1.55;68.64;101278.61;111127;1212;139574;-64
2024/04/21 05:01:22;;;;;;;8.60;3.90;;;;;;;1.58;68.50;101278.09;110965;1205;112961;-63
2024/04/21 05:03:49;;;;;;;10.00;3.70;;;;;;;1.63;68.57;101279.16;111167;1209;99115;-63
2024/04/21 05:06:15;;;;;;;5.80;3.40;;;;;;;1.66;68.68;101277.23;111043;1210;139354;-63
2024/04/21 05:08:40;;;;;;;7.80;4.30;;;;;;;1.69;68.76;101277.42;111109;1206;98897;-63
2024/04/21 05:11:05;;;;;;;6.70;3.50;;;;;;;1.72;68.60;101277.08;110909;1211;138524;-63
2024/04/21 05:13:31;;;;;;;9.40;3.80;;;;;;;1.74;68.64;101274.79;111130;1206;98974;-63
2024/04/21 05:15:56;;;;;;;10.60;4.00;;;;;;;1.76;68.66;101275.50;111085;1211;99090;-63
2024/04/21 05:18:21;;;;;;;6.00;3.60;;;;;;;1.81;68.77;101278.51;110971;1206;138470;-64
2024/04/21 05:20:46;;;;;;;8.80;4.00;;;;;;;1.83;68.61;101276.58;111022;1206;99031;-63
2024/04/21 05:23:11;;;;;;;8.40;3.80;;;;;;;1.86;68.87;101276.23;110946;1212;138445;-63
2024/04/21 05:25:37;;;;;;;9.90;3.90;;;;;;;1.89;68.70;101274.48;111010;1209;98971;-63
2024/04/21 05:28:03;;;;;;;9.40;3.80;;;;;;;1.90;68.75;101277.64;111087;1206;97764;-63
2024/04/21 05:30:28;;;;;;;8.00;3.60;;;;;;;1.93;68.84;101275.01;110877;1211;138425;-63
2024/04/21 05:32:53;;;;;;;11.40;3.70;;;;;;;1.97;68.83;101273.78;111038;1206;98980;-63
2024/04/21 05:35:18;;;;;;;6.70;3.80;;;;;;;2.02;68.82;101275.55;110913;1212;138794;-63
2024/04/21 05:37:44;;;;;;;10.00;4.00;;;;;;;2.05;68.80;101277.32;111126;1206;99060;-63
2024/04/21 05:40:10;;;;;;;8.20;3.90;;;;;;;2.09;68.91;101276.09;111041;1206;98937;-63
2024/04/21 05:42:35;;;;;;;6.60;3.30;;;;;;;2.12;68.72;101276.45;111028;1206;138828;-63
2024/04/21 05:45:01;;;;;;;7.30;4.10;;;;;;;2.16;69.02;101280.52;111149;1206;112996;-65
2024/04/21 05:47:26;;;;;;;8.50;3.40;;;;;;;2.19;69.01;101279.63;111015;1212;139935;-65
2024/04/21 05:49:51;;;;;;;6.10;3.30;;;;;;;2.22;68.95;101279.29;111147;1205;98919;-63
2024/04/21 05:52:17;;;;;;;8.80;3.70;;;;;;;2.25;68.97;101276.99;111085;1212;99063;-63
2024/04/21 05:54:42;;;;;;;10.00;3.70;;;;;;;2.29;68.97;101280.52;110890;1210;138410;-63
2024/04/21 05:57:07;;;;;;;7.70;3.00;;;;;;;2.33;68.97;101281.94;110992;1211;107968;-63
2024/04/21 05:59:32;;;;;;;7.60;4.40;;;;;;;2.38;69.09;101287.05;110878;1210;138803;-63
2024/04/21 06:01:58;;;;;;;7.60;3.40;;;;;;;2.43;69.05;101288.11;111071;1211;99050;-63
2024/04/21 06:04:23;;;;;;;11.80;3.20;;;;;;;2.48;69.10;101289.34;111042;1206;98943;-63
2024/04/21 06:06:50;;;;;;;6.90;3.30;;;;;;;2.53;69.03;101290.23;111002;1206;138407;-63
2024/04/21 06:09:16;;;;;;;7.60;3.40;;;;;;;2.56;69.05;101288.46;111053;1209;99013;-63
2024/04/21 06:11:42;;;;;;;9.40;4.00;;;;;;;2.62;69.14;101286.31;110862;1206;138349;-63
2024/04/21 06:14:07;;;;;;;9.30;3.80;;;;;;;2.68;69.05;101291.42;111049;1206;98220;-63
2024/04/21 06:16:34;;;;;;;7.10;3.40;;;;;;;2.73;69.20;101292.48;111037;1211;98948;-63
2024/04/21 06:19:02;;;;;;;7.60;3.70;;;;;;;2.78;69.13;101294.94;110919;1205;140778;-66
2024/04/21 06:21:35;;;;;;;6.20;3.40;;;;;;;2.81;69.10;101297.05;111095;1205;99073;-64
2024/04/21 06:24:00;;;;;;;7.60;4.00;;;;;;;2.85;69.16;101297.23;110863;1206;138335;-64
2024/04/21 06:26:25;;;;;;;9.20;3.80;;;;;;;2.87;69.08;101293.86;111033;1212;99130;-63
2024/04/21 06:28:50;;;;;;;7.40;3.30;;;;;;;2.92;69.01;101298.80;110826;1205;139293;-64
2024/04/21 06:31:15;;;;;;;10.40;4.00;;;;;;;2.97;69.14;101298.98;110919;1209;99118;-64
2024/04/21 06:33:45;;;;;;;7.10;3.00;;;;;;;3.01;69.06;101299.33;111035;1205;100267;-64
2024/04/21 06:36:10;;;;;;;8.60;3.20;;;;;;;3.07;69.12;101299.84;110938;1205;137934;-63
2024/04/21 06:38:35;;;;;;;8.00;3.60;;;;;;;3.10;69.23;101301.95;111016;1211;99071;-64
2024/04/21 06:41:00;;;;;;;5.90;3.20;;;;;;;3.11;68.94;101300.36;111043;1205;138858;-64
2024/04/21 06:43:25;;;;;;;6.00;3.30;;;;;;;3.14;68.98;101297.16;110990;1206;99051;-64
2024/04/21 06:45:51;;;;;;;6.80;3.30;;;;;;;3.18;68.97;101298.75;111267;1205;97711;-64
2024/04/21 06:48:16;;;;;;;6.00;3.10;;;;;;;3.22;69.03;101301.04;111036;1211;138594;-64
2024/04/21 06:50:42;;;;;;;6.80;3.70;;;;;;;3.27;69.09;101300.84;111148;1205;98542;-64
2024/04/21 06:53:10;;;;;;;12.00;3.60;;;;;;;3.31;68.99;101299.59;111055;1206;138654;-64
2024/04/21 06:55:35;;;;;;;9.10;4.30;;;;;;;3.36;69.14;101298.35;111086;1206;99408;-64
2024/04/21 06:58:01;;;;;;;8.20;3.40;;;;;;;3.40;69.13;101295.50;111182;1205;99048;-64
2024/04/21 07:00:27;;;;;;;6.10;2.90;;;;;;;3.45;69.23;101298.30;110809;1212;138216;-64
2024/04/21 07:02:52;;;;;;;6.90;3.40;;;;;;;3.49;69.16;101300.41;111053;1205;99118;-64
2024/04/21 07:05:17;;;;;;;6.50;2.80;;;;;;;3.54;69.17;101304.63;110989;1211;138528;-64
2024/04/21 07:07:42;;;;;;;6.50;3.50;;;;;;;3.59;69.05;101302.48;111107;1206;98700;-63
2024/04/21 07:10:08;;;;;;;7.80;3.40;;;;;;;3.63;69.07;101303.52;111042;1211;98970;-64
2024/04/21 07:12:33;;;;;;;8.90;4.00;;;;;;;3.69;69.18;101303.86;111027;1206;138990;-64
2024/04/21 07:14:58;;;;;;;5.90;2.90;;;;;;;3.74;69.36;101304.20;111047;1205;99041;-64
2024/04/21 07:17:23;;;;;;;9.90;3.00;;;;;;;3.79;69.13;101303.98;111007;1211;138628;-64
2024/04/21 07:19:48;;;;;;;5.70;2.90;;;;;;;3.83;69.06;101304.14;111067;1206;99004;-63
2024/04/21 07:22:14;;;;;;;7.00;3.10;;;;;;;3.88;69.15;101306.23;111195;1206;99034;-64
2024/04/21 07:24:39;;;;;;;8.50;3.40;;;;;;;3.93;69.11;101307.63;110963;1211;138651;-64
2024/04/21 07:27:04;;;;;;;6.70;2.70;;;;;;;3.98;68.98;101306.71;111019;1206;98964;-65
2024/04/21 07:29:32;;;;;;;6.70;2.80;;;;;;;4.03;69.04;101309.16;110986;1205;138782;-65
2024/04/21 07:31:57;;;;;;;6.00;2.80;;;;;;;4.11;69.08;101312.83;111278;1205;113412;-65
2024/04/21 07:34:25;;;;;;;7.20;2.50;;;;;;;4.18;69.05;101306.05;111073;1211;99023;-65
2024/04/21 07:36:50;;;;;;;5.60;3.00;;;;;;;4.24;68.98;101303.54;111066;1205;137558;-66
2024/04/21 07:39:17;;;;;;;2.80;1.80;;;;;;;4.31;69.05;101307.38;111244;1209;99131;-65
2024/04/21 07:41:43;;;;;;;5.10;2.00;;;;;;;4.36;68.90;101307.36;111000;1205;138357;-65
2024/04/21 07:44:08;;;;;;;4.80;2.00;;;;;;;4.40;68.82;101312.09;111202;1206;98932;-64
2024/04/21 07:46:35;;;;;;;6.80;2.70;;;;;;;4.44;68.70;101301.98;111198;1209;99042;-64
2024/04/21 07:49:03;;;;;;;6.80;2.70;;;;;;;4.49;68.70;101303.70;111079;1205;138970;-64
2024/04/21 07:51:28;;;;;;;6.80;2.30;;;;;;;4.53;68.61;101302.79;111182;1210;112835;-64
2024/04/21 07:53:56;;;;;;;3.90;2.30;;;;;;;4.59;68.55;101308.23;111046;1206;137960;-64
2024/04/21 07:56:24;;;;;;;4.00;2.30;;;;;;;4.64;68.53;101298.62;111073;1207;99150;-65
2024/04/21 07:58:51;;;;;;;3.20;2.40;;;;;;;4.68;68.48;101302.13;111149;1205;98335;-64
2024/04/21 08:01:17;;;;;;;2.60;2.10;;;;;;;4.71;68.25;101307.05;111037;1211;137352;-64
2024/04/21 08:03:42;;;;;;;3.20;2.50;;;;;;;4.74;68.40;101307.92;111190;1205;96477;-64
2024/04/21 08:06:07;;;;;;;2.80;1.90;;;;;;;4.79;68.48;101304.50;111049;1206;138694;-64
2024/04/21 08:08:33;;;;;;;6.70;2.40;;;;;;;4.85;68.36;101306.93;111069;1211;97551;-64
2024/04/21 08:11:01;;;;;;;4.30;2.00;;;;;;;4.91;68.50;101310.95;111143;1211;139681;-64
2024/04/21 08:13:26;;;;;;;2.70;1.60;;;;;;;4.97;68.41;101304.70;111111;1205;100029;-64
2024/04/21 08:15:52;;;;;;;4.60;2.00;;;;;;;5.02;68.24;101305.70;111141;1206;99044;-63
2024/04/21 08:18:17;;;;;;;2.30;1.70;;;;;;;5.07;67.97;101313.45;111104;1205;137595;-63
2024/04/21 08:20:46;;;;;;;1.40;1.30;;;;;;;5.09;67.57;101303.86;111136;1206;98938;-64
2024/04/21 08:23:12;;;;;;;4.40;1.60;;;;;;;5.10;67.82;101305.80;111081;1210;137660;-64
2024/04/21 08:25:39;;;;;;;2.10;1.30;;;;;;;5.14;67.70;101309.48;111136;1206;99054;-64
2024/04/21 08:28:04;;;;;;;2.30;1.30;;;;;;;5.16;67.51;101303.08;111079;1205;97604;-64
2024/04/21 08:30:29;;;;;;;2.20;1.70;;;;;;;5.20;67.54;101305.14;111050;1205;138356;-64
2024/04/21 08:32:55;;;;;;;5.40;1.40;;;;;;;5.26;67.37;101305.95;111042;1206;103765;-64
2024/04/21 08:35:20;;;;;;;1.50;1.30;;;;;;;5.32;67.32;101309.97;111038;1206;138125;-64
2024/04/21 08:37:45;;;;;;;3.00;1.60;;;;;;;5.38;67.21;101303.15;111209;1206;96522;-64
2024/04/21 08:40:11;;;;;;;6.50;2.10;;;;;;;5.45;67.16;101309.27;111137;1210;98965;-64
2024/04/21 08:42:36;;;;;;;2.10;1.60;;;;;;;5.47;66.81;101310.67;111081;1206;137800;-64
2024/04/21 08:45:04;;;;;;;2.00;1.70;;;;;;;5.51;66.80;101310.27;111097;1206;98980;-64
2024/04/21 08:47:32;;;;;;;4.50;1.70;;;;;;;5.58;66.82;101315.86;110976;1205;137807;-64
2024/04/21 08:50:00;;;;;;;3.20;1.80;;;;;;;5.67;66.77;101309.89;111105;1208;98944;-64
2024/04/21 08:52:25;;;;;;;2.00;1.40;;;;;;;5.73;66.77;101309.29;111074;1212;99958;-64
2024/04/21 08:54:50;;;;;;;2.90;1.80;;;;;;;5.77;66.49;101307.46;111051;1205;140065;-64
2024/04/21 08:57:16;;;;;;;2.00;1.70;;;;;;;5.78;66.53;101300.52;111115;1206;100404;-64
2024/04/21 08:59:42;;;;;;;2.10;1.50;;;;;;;5.79;66.39;101306.02;111060;1207;138368;-64
2024/04/21 09:02:12;;;;;;;4.10;1.60;;;;;;;5.81;66.22;101307.77;111251;1206;99112;-64
2024/04/21 09:04:43;;;;;;;3.70;1.80;;;;;;;5.80;66.02;101308.66;110996;1205;107940;-64
2024/04/21 09:07:10;;;;;;;2.00;1.30;;;;;;;5.80;66.06;101306.17;110976;1211;137853;-65
2024/04/21 09:09:36;;;;;;;2.90;1.50;;;;;;;5.78;65.86;101304.78;111171;1206;98943;-64
2024/04/21 09:12:01;;;;;;;4.20;1.90;;;;;;;5.80;65.67;101305.29;110853;1210;139402;-64
2024/04/21 09:14:27;;;;;;;3.80;1.30;;;;;;;5.82;65.75;101303.32;111120;1206;98991;-64
2024/04/21 09:16:53;;;;;;;2.80;1.50;;;;;;;5.83;65.71;101303.30;111189;1206;99114;-64
2024/04/21 09:19:19;;;;;;;1.20;1.10;;;;;;;5.85;65.67;101306.11;110998;1206;138635;-64
2024/04/21 09:21:46;;;;;;;3.70;1.60;;;;;;;5.90;65.57;101301.46;111182;1205;99048;-64
2024/04/21 09:24:11;;;;;;;1.70;1.10;;;;;;;5.96;65.45;101300.15;111048;1206;139098;-64
2024/04/21 09:26:36;;;;;;;2.60;1.60;;;;;;;6.01;65.41;101298.47;110922;1205;99034;-64
2024/04/21 09:29:02;;;;;;;5.10;1.70;;;;;;;6.02;65.20;101299.35;111075;1206;137903;-64
2024/04/21 09:31:29;;;;;;;5.10;1.50;;;;;;;6.04;65.04;101294.70;111230;1205;100023;-64
2024/04/21 09:33:55;;;;;;;2.20;1.30;;;;;;;6.08;65.01;101294.13;111101;1211;99028;-64
2024/04/21 09:36:23;;;;;;;3.00;1.30;;;;;;;6.08;65.04;101295.17;111299;1205;137829;-64
2024/04/21 09:38:51;;;;;;;1.40;1.20;;;;;;;6.10;64.86;101294.63;111187;1211;98966;-64
2024/04/21 09:41:17;;;;;;;3.40;2.00;;;;;;;6.10;64.81;101293.20;111142;1207;139732;-64
2024/04/21 09:43:43;;;;;;;2.50;1.50;;;;;;;6.12;64.70;101289.62;111091;1211;99066;-64
2024/04/21 09:46:11;;;;;;;2.50;1.50;;;;;;;6.14;64.57;101288.17;111087;1212;97530;-64
2024/04/21 09:48:37;;;;;;;2.30;1.50;;;;;;;6.15;64.61;101286.56;110967;1212;139173;-64
2024/04/21 09:51:03;;;;;;;1.80;1.40;;;;;;;6.15;64.43;101288.33;111141;1207;97254;-64
2024/04/21 09:53:29;;;;;;;1.60;1.20;;;;;;;6.12;64.15;101288.38;111070;1207;141926;-64
2024/04/21 09:55:56;;;;;;;2.70;1.10;;;;;;;6.11;64.29;101289.63;111150;1210;97641;-64
2024/04/21 09:58:25;;;;;;;2.60;1.40;;;;;;;6.13;64.23;101292.27;111092;1211;99042;-64
2024/04/21 10:00:53;;;;;;;4.70;1.50;;;;;;;6.15;64.02;101290.81;110954;1210;138962;-64
2024/04/21 10:03:18;;;;;;;3.60;1.90;;;;;;;6.10;63.84;101292.30;111182;1206;99090;-64
2024/04/21 10:05:45;;;;;;;2.60;1.60;;;;;;;6.09;63.98;101294.45;110915;1208;138065;-64
2024/04/21 10:08:11;;;;;;;2.40;1.60;;;;;;;6.14;63.94;101291.01;111112;1207;99048;-64
2024/04/21 10:10:39;;;;;;;2.00;1.40;;;;;;;6.16;63.75;101289.55;111107;1212;99034;-64
2024/04/21 10:13:06;;;;;;;6.20;1.60;;;;;;;6.22;63.65;101296.58;110954;1207;137589;-64
2024/04/21 10:15:33;;;;;;;6.80;1.50;;;;;;;6.25;63.54;101295.81;111203;1211;99017;-64
2024/04/21 10:18:01;;;;;;;2.50;1.50;;;;;;;6.24;63.47;101293.17;110988;1208;138224;-64
2024/04/21 10:20:30;;;;;;;5.40;1.90;;;;;;;6.21;63.37;101290.20;111259;1212;99052;-64
2024/04/21 10:23:14;;;;;;;3.00;1.40;;;;;;;6.20;63.37;101290.21;111265;1212;138610;-67
2024/04/21 10:25:46;;;;;;;7.90;1.70;;;;;;;6.22;63.27;101295.51;111169;1206;99249;-64
2024/04/21 10:28:14;;;;;;;5.10;1.50;;;;;;;6.26;63.31;101292.43;111105;1212;107437;-64
2024/04/21 10:30:39;;;;;;;3.00;1.80;;;;;;;6.29;63.36;101294.33;110937;1207;138280;-64
2024/04/21 10:33:10;;;;;;;2.50;1.60;;;;;;;6.33;63.15;101291.42;111116;1212;99051;-64
2024/04/21 10:35:40;;;;;;;2.50;1.60;;;;;;;6.35;63.20;101291.58;110903;1207;138305;-64
2024/04/21 10:38:12;;;;;;;2.90;1.50;;;;;;;6.37;63.15;101291.73;111047;1206;100061;-64
2024/04/21 10:40:45;;;;;;;4.50;1.90;;;;;;;6.37;63.19;101290.84;111313;1208;107752;-64
2024/04/21 10:43:10;;;;;;;3.00;2.10;;;;;;;6.39;63.10;101289.58;110891;1207;138688;-64
2024/04/21 10:45:37;;;;;;;3.70;1.80;;;;;;;6.41;63.07;101291.30;111072;1208;99082;-64
2024/04/21 10:48:04;;;;;;;2.10;1.40;;;;;;;6.44;62.98;101296.05;111002;1208;138643;-64
2024/04/21 10:50:32;;;;;;;1.80;1.60;;;;;;;6.44;62.92;101291.27;111249;1206;99220;-64
2024/04/21 10:52:57;;;;;;;3.10;1.80;;;;;;;6.48;62.99;101287.98;111062;1211;138138;-65
2024/04/21 10:55:23;;;;;;;2.70;1.50;;;;;;;6.47;62.82;101284.27;111119;1210;98941;-64
2024/04/21 10:57:49;;;;;;;1.80;1.50;;;;;;;6.44;62.76;101282.91;111233;1205;99002;-64
2024/04/21 11:00:14;;;;;;;3.20;1.40;;;;;;;6.48;62.79;101280.88;111024;1205;137748;-63
2024/04/21 11:02:41;;;;;;;2.10;1.40;;;;;;;6.56;62.82;101280.41;111098;1205;98958;-63
2024/04/21 11:05:06;;;;;;;3.50;1.40;;;;;;;6.60;62.75;101279.80;111060;1210;138929;-63
2024/04/21 11:07:33;;;;;;;5.60;1.80;;;;;;;6.71;62.73;101282.81;111150;1206;99042;-63
2024/04/21 11:09:59;;;;;;;3.70;2.00;;;;;;;6.81;62.58;101280.32;111196;1205;106668;-64
2024/04/21 11:12:24;;;;;;;3.40;1.70;;;;;;;6.91;62.66;101280.14;110934;1206;137860;-63